Time;durP1;ratioP1;P1;durP2;ratioP2;P2;SDS_P1;SDS_P2;PMS_P1;PMS_P2;Temp;Humidity;BMP_temperature;BMP_pressure;BME280_temperature;BME280_humidity;BME280_pressure;Samples;Min_cycle;Max_cycle;Signal;HPM_P1;HPM_P2
2021/06/23 00:01:20;;;;;;;;;;;;;;;24.99;55.22;100907.63;5047715;28;1296;-63
2021/06/23 00:04:05;;;;;;;;;;;;;;;24.96;55.70;100899.03;5048106;28;1058;-63
2021/06/23 00:06:51;;;;;;;;;;;;;;;24.98;55.46;100903.31;5047569;28;1373;-62
2021/06/23 00:09:36;;;;;;;;;;;;;;;24.97;55.46;100896.25;5048122;28;1131;-63
2021/06/23 00:12:21;;;;;;;;;;;;;;;24.97;55.26;100896.25;5047464;28;1332;-62
2021/06/23 00:15:08;;;;;;;;;;;;;;;24.97;55.39;100890.09;5047737;28;1902;-63
2021/06/23 00:17:59;;;;;;;;;;;;;;;24.92;55.33;100881.63;5047779;28;1456;-63
2021/06/23 00:20:44;;;;;;;;;;;;;;;24.93;54.97;100881.50;5042831;28;1475;-63
2021/06/23 00:23:30;;;;;;;;;;;;;;;24.85;55.20;100881.28;5039045;28;1265;-63
2021/06/23 00:26:15;;;;;;;;;;;;;;;24.92;55.08;100873.63;5027761;28;1284;-63
2021/06/23 00:29:01;;;;;;;;;;;;;;;24.96;54.82;100878.56;5027894;28;1085;-64
2021/06/23 00:31:46;;;;;;;;;;;;;;;24.92;54.69;100868.31;5043640;28;1290;-64
2021/06/23 00:34:32;;;;;;;;;;;;;;;24.94;54.65;100869.00;5046431;28;2009;-64
2021/06/23 00:37:17;;;;;;;;;;;;;;;24.95;54.54;100854.72;5047047;28;1275;-64
2021/06/23 00:40:04;;;;;;;;;;;;;;;24.95;54.31;100855.59;5047000;28;718;-64
2021/06/23 00:42:51;;;;;;;;;;;;;;;24.96;54.39;100851.06;5034808;28;1241;-64
2021/06/23 00:45:37;;;;;;;;;;;;;;;24.92;54.58;100845.19;5027092;28;604;-62
2021/06/23 00:48:30;;;;;;;;;;;;;;;24.88;54.50;100845.53;5027580;28;1310;-63
2021/06/23 00:51:15;;;;;;;;;;;;;;;24.91;54.43;100837.28;5042923;28;1222;-63
2021/06/23 00:54:01;;;;;;;;;;;;;;;24.85;54.51;100837.78;5030908;28;981;-64
2021/06/23 00:56:46;;;;;;;;;;;;;;;24.90;54.02;100838.25;5030584;28;1382;-63
2021/06/23 00:59:33;;;;;;;;;;;;;;;24.92;54.06;100833.66;5030903;28;1032;-63
2021/06/23 01:02:20;;;;;;;;;;;;;;;24.88;54.34;100837.53;5030680;28;1245;-63
2021/06/23 01:05:05;;;;;;;;;;;;;;;24.88;54.25;100837.53;5029791;28;655;-64
2021/06/23 01:07:51;;;;;;;;;;;;;;;24.90;54.23;100839.09;5030688;28;1311;-63
2021/06/23 01:10:36;;;;;;;;;;;;;;;24.87;54.26;100836.69;5030642;28;574;-63
2021/06/23 01:13:28;;;;;;;;;;;;;;;24.79;54.42;100839.09;5030968;28;1274;-63
2021/06/23 01:16:13;;;;;;;;;;;;;;;24.77;54.54;100842.88;5030185;28;1898;-64
2021/06/23 01:18:59;;;;;;;;;;;;;;;24.75;54.46;100842.13;5030539;28;1334;-64
2021/06/23 01:21:44;;;;;;;;;;;;;;;24.72;54.34;100847.69;5030707;28;1287;-63
2021/06/23 01:24:30;;;;;;;;;;;;;;;24.71;54.43;100841.56;5030503;28;1038;-63
2021/06/23 01:27:15;;;;;;;;;;;;;;;24.71;54.39;100846.03;5030030;28;1296;-63
2021/06/23 01:30:01;;;;;;;;;;;;;;;24.69;54.46;100842.63;5030125;28;636;-63
2021/06/23 01:32:47;;;;;;;;;;;;;;;24.68;54.55;100840.94;5030146;28;1231;-63
2021/06/23 01:35:32;;;;;;;;;;;;;;;24.68;54.31;100833.81;5029271;28;1902;-63
2021/06/23 01:38:18;;;;;;;;;;;;;;;24.67;54.53;100829.44;5030287;28;1285;-63
2021/06/23 01:41:03;;;;;;;;;;;;;;;24.64;54.50;100828.84;5030028;28;639;-63
2021/06/23 01:43:48;;;;;;;;;;;;;;;24.66;54.19;100822.41;5030174;28;1069;-63
2021/06/23 01:46:34;;;;;;;;;;;;;;;24.63;54.34;100821.81;5029853;28;1276;-63
2021/06/23 01:49:20;;;;;;;;;;;;;;;24.66;54.31;100826.88;5030001;28;1055;-63
2021/06/23 01:52:06;;;;;;;;;;;;;;;24.59;54.52;100823.03;5029750;28;1376;-63
2021/06/23 01:54:52;;;;;;;;;;;;;;;24.60;54.57;100814.06;5029605;28;1899;-65
2021/06/23 01:57:39;;;;;;;;;;;;;;;24.55;54.65;100811.78;5029582;28;1372;-64
2021/06/23 02:00:48;;;;;;;;;;;;;;;24.55;54.53;100811.78;5029068;28;730;-65
2021/06/23 02:03:34;;;;;;;;;;;;;;;24.57;54.46;100812.50;5029644;28;1051;-64
2021/06/23 02:06:31;;;;;;;;;;;;;;;24.53;54.58;100815.53;5029833;28;1289;-64
2021/06/23 02:09:22;;;;;;;;;;;;;;;24.53;54.82;100800.38;5029438;28;1056;-64
2021/06/23 02:12:18;;;;;;;;;;;;;;;24.53;54.54;100799.56;5029806;28;1363;-64
2021/06/23 02:15:07;;;;;;;;;;;;;;;24.54;54.53;100814.56;5029087;28;1966;-64
2021/06/23 02:17:52;;;;;;;;;;;;;;;24.52;54.59;100824.50;5029334;28;1384;-64
2021/06/23 02:20:38;;;;;;;;;;;;;;;24.53;54.59;100823.53;5029335;28;573;-63
2021/06/23 02:23:23;;;;;;;;;;;;;;;24.51;54.63;100833.44;5028864;28;1302;-63
2021/06/23 02:26:08;;;;;;;;;;;;;;;24.49;54.66;100852.22;5028952;28;715;-64
2021/06/23 02:28:54;;;;;;;;;;;;;;;24.47;54.71;100854.97;5028965;28;1046;-63
2021/06/23 02:31:39;;;;;;;;;;;;;;;24.53;54.62;100836.84;5029068;28;1232;-63
2021/06/23 02:34:25;;;;;;;;;;;;;;;24.57;54.48;100827.63;5029337;28;1073;-63
2021/06/23 02:37:10;;;;;;;;;;;;;;;24.51;54.57;100814.78;5028865;28;1322;-64
2021/06/23 02:39:57;;;;;;;;;;;;;;;24.56;54.23;100817.97;5041359;28;612;-64
2021/06/23 02:42:42;;;;;;;;;;;;;;;24.54;53.97;100834.03;5027921;28;1286;-64
2021/06/23 02:45:27;;;;;;;;;;;;;;;24.47;53.99;100828.34;5027952;28;609;-64
2021/06/23 02:48:13;;;;;;;;;;;;;;;24.50;54.18;100826.44;5029043;28;1276;-64
2021/06/23 02:50:59;;;;;;;;;;;;;;;24.52;54.01;100829.81;5028389;28;636;-64
2021/06/23 02:53:45;;;;;;;;;;;;;;;24.49;53.80;100836.25;5028389;28;1042;-64
2021/06/23 02:56:31;;;;;;;;;;;;;;;24.53;53.78;100840.31;5028723;28;1969;-64
2021/06/23 02:59:18;;;;;;;;;;;;;;;24.53;53.52;100836.84;5027286;28;1077;-64
2021/06/23 03:02:04;;;;;;;;;;;;;;;24.54;53.39;100835.84;5028270;28;1302;-63
2021/06/23 03:04:50;;;;;;;;;;;;;;;24.58;53.40;100842.63;5028330;28;675;-64
2021/06/23 03:07:35;;;;;;;;;;;;;;;24.61;52.80;100850.38;5028297;28;1274;-63
2021/06/23 03:10:20;;;;;;;;;;;;;;;24.58;52.54;100847.97;5028401;28;639;-64
2021/06/23 03:13:07;;;;;;;;;;;;;;;24.57;52.56;100848.94;5027177;28;1284;-64
2021/06/23 03:15:52;;;;;;;;;;;;;;;24.48;53.03;100846.03;5027914;28;1969;-64
2021/06/23 03:18:37;;;;;;;;;;;;;;;24.59;53.08;100858.50;5028395;28;972;-64
2021/06/23 03:21:23;;;;;;;;;;;;;;;24.50;53.14;100863.72;5028067;28;1354;-64
2021/06/23 03:24:08;;;;;;;;;;;;;;;24.53;52.93;100860.81;5028055;28;1219;-64
2021/06/23 03:26:54;;;;;;;;;;;;;;;24.56;52.74;100847.25;5027925;28;1356;-64
2021/06/23 03:29:39;;;;;;;;;;;;;;;24.53;52.10;100852.81;5028195;28;946;-64
2021/06/23 03:32:24;;;;;;;;;;;;;;;24.52;51.48;100869.75;5027801;28;1381;-64
2021/06/23 03:35:10;;;;;;;;;;;;;;;24.47;51.22;100865.63;5027701;28;1965;-63
2021/06/23 03:37:56;;;;;;;;;;;;;;;24.43;51.16;100856.22;5028015;28;1376;-64
2021/06/23 03:40:41;;;;;;;;;;;;;;;24.39;51.76;100851.25;5027517;28;621;-64
2021/06/23 03:43:29;;;;;;;;;;;;;;;24.37;51.63;100863.84;5027511;28;1496;-64
2021/06/23 03:46:14;;;;;;;;;;;;;;;24.39;51.21;100878.72;5026412;28;1278;-63
2021/06/23 03:49:00;;;;;;;;;;;;;;;24.39;51.26;100872.53;5027969;28;1049;-64
2021/06/23 03:51:45;;;;;;;;;;;;;;;24.38;50.82;100862.84;5027671;28;1379;-64
2021/06/23 03:54:30;;;;;;;;;;;;;;;24.37;51.04;100863.84;5028167;28;1170;-64
2021/06/23 03:57:16;;;;;;;;;;;;;;;24.33;50.61;100863.22;5027428;28;1902;-62
2021/06/23 04:00:03;;;;;;;;;;;;;;;24.33;50.45;100857.91;5027630;28;702;-62
2021/06/23 04:02:53;;;;;;;;;;;;;;;24.30;50.07;100855.47;5027280;28;1409;-62
2021/06/23 04:05:38;;;;;;;;;;;;;;;24.29;50.42;100851.09;5027449;28;559;-63
2021/06/23 04:08:26;;;;;;;;;;;;;;;24.30;50.15;100850.16;5027570;28;1320;-62
2021/06/23 04:11:11;;;;;;;;;;;;;;;24.28;49.97;100843.25;5027390;28;1299;-63
2021/06/23 04:13:57;;;;;;;;;;;;;;;24.28;49.95;100848.59;5027803;28;986;-62
2021/06/23 04:16:42;;;;;;;;;;;;;;;24.29;49.60;100843.13;5027401;28;1981;-63
2021/06/23 04:19:27;;;;;;;;;;;;;;;24.25;49.60;100848.81;5028132;28;1055;-62
2021/06/23 04:22:12;;;;;;;;;;;;;;;24.21;49.58;100853.53;5027221;28;1271;-62
2021/06/23 04:24:58;;;;;;;;;;;;;;;24.23;49.58;100851.59;5030031;28;742;-62
2021/06/23 04:27:44;;;;;;;;;;;;;;;24.23;49.77;100853.41;5031253;28;1506;-62
2021/06/23 04:30:29;;;;;;;;;;;;;;;24.24;50.14;100853.28;5031212;28;667;-63
2021/06/23 04:33:15;;;;;;;;;;;;;;;24.21;50.32;100844.69;5031281;28;1292;-63
2021/06/23 04:36:00;;;;;;;;;;;;;;;24.22;49.99;100844.59;5031359;28;1910;-63
2021/06/23 04:38:46;;;;;;;;;;;;;;;24.18;50.03;100837.81;5031362;28;1182;-62
2021/06/23 04:41:31;;;;;;;;;;;;;;;24.17;50.48;100832.59;5030921;28;1284;-62
2021/06/23 04:44:16;;;;;;;;;;;;;;;24.12;50.26;100838.28;5031324;28;951;-62
2021/06/23 04:47:01;;;;;;;;;;;;;;;24.15;50.87;100843.38;5030826;28;1405;-62
2021/06/23 04:49:46;;;;;;;;;;;;;;;24.11;51.19;100846.38;5030727;28;730;-63
2021/06/23 04:52:32;;;;;;;;;;;;;;;24.09;51.13;100848.28;5030896;28;1248;-63
2021/06/23 04:55:17;;;;;;;;;;;;;;;24.05;51.71;100845.00;5030412;28;1905;-62
2021/06/23 04:58:03;;;;;;;;;;;;;;;24.06;51.54;100848.53;5043173;28;1286;-63
2021/06/23 05:00:48;;;;;;;;;;;;;;;24.05;51.61;100847.66;5028568;28;568;-64
2021/06/23 05:03:34;;;;;;;;;;;;;;;24.02;51.41;100853.22;5029183;28;1314;-64
2021/06/23 05:06:19;;;;;;;;;;;;;;;23.95;51.64;100852.03;5030544;28;1283;-64
2021/06/23 05:09:08;;;;;;;;;;;;;;;24.02;51.41;100853.22;5030727;28;1152;-64
2021/06/23 05:11:54;;;;;;;;;;;;;;;23.98;50.99;100843.81;5030147;28;1272;-64
2021/06/23 05:14:39;;;;;;;;;;;;;;;24.01;50.80;100848.91;5045324;28;1449;-64
2021/06/23 05:17:24;;;;;;;;;;;;;;;23.98;50.11;100848.28;5043006;28;1995;-64
2021/06/23 05:20:11;;;;;;;;;;;;;;;24.01;49.80;100851.56;5030084;28;665;-66
2021/06/23 05:22:56;;;;;;;;;;;;;;;23.98;49.49;100861.59;5030331;28;1363;-65
2021/06/23 05:25:41;;;;;;;;;;;;;;;23.97;49.42;100860.72;5030480;28;660;-65
2021/06/23 05:28:27;;;;;;;;;;;;;;;23.99;49.62;100861.44;5029911;28;1456;-65
2021/06/23 05:31:12;;;;;;;;;;;;;;;23.99;48.39;100868.56;5030082;28;1391;-65
2021/06/23 05:33:57;;;;;;;;;;;;;;;24.01;48.36;100864.88;5030416;28;964;-65
2021/06/23 05:36:43;;;;;;;;;;;;;;;24.01;48.60;100872.00;5029290;28;1906;-64
2021/06/23 05:39:28;;;;;;;;;;;;;;;24.04;48.32;100877.06;5028850;28;1166;-64
2021/06/23 05:42:16;;;;;;;;;;;;;;;23.95;48.21;100878.63;5029248;28;1310;-64
2021/06/23 05:45:01;;;;;;;;;;;;;;;23.91;48.38;100886.00;5043121;28;647;-63
2021/06/23 05:47:47;;;;;;;;;;;;;;;23.95;48.37;100889.28;5029854;28;1383;-64
2021/06/23 05:50:32;;;;;;;;;;;;;;;23.83;48.22;100884.91;5029959;28;624;-63
2021/06/23 05:53:17;;;;;;;;;;;;;;;23.93;48.43;100891.19;5030256;28;1359;-62
2021/06/23 05:56:03;;;;;;;;;;;;;;;23.94;48.30;100898.22;5028793;28;1971;-64
2021/06/23 05:58:48;;;;;;;;;;;;;;;23.89;48.99;100898.53;5030431;28;1163;-64
2021/06/23 06:01:34;;;;;;;;;;;;;;;23.88;47.88;100904.00;5029727;28;1375;-64
2021/06/23 06:04:19;;;;;;;;;;;;;;;23.92;47.76;100900.97;5030110;28;942;-64
2021/06/23 06:07:05;;;;;;;;;;;;;;;23.93;47.09;100891.19;5029537;28;1232;-64
2021/06/23 06:09:50;;;;;;;;;;;;;;;23.95;46.58;100886.63;5029532;28;812;-64
2021/06/23 06:12:35;;;;;;;;;;;;;;;23.89;46.79;100892.41;5029732;28;1279;-64
2021/06/23 06:15:21;;;;;;;;;;;;;;;23.93;46.53;100889.38;5029265;28;699;-64
2021/06/23 06:18:07;;;;;;;;;;;;;;;23.91;45.94;100887.81;5029688;28;1621;-64
2021/06/23 06:20:54;;;;;;;;;;;;;;;23.91;45.65;100893.13;5028712;28;683;-65
2021/06/23 06:23:39;;;;;;;;;;;;;;;23.98;47.41;100902.34;5028884;28;896;-64
2021/06/23 06:26:24;;;;;;;;;;;;;;;23.91;45.98;100903.78;5029442;28;1275;-64
2021/06/23 06:29:09;;;;;;;;;;;;;;;23.89;46.24;100906.53;5029156;28;1144;-64
2021/06/23 06:31:54;;;;;;;;;;;;;;;23.81;46.27;100889.47;5028973;28;1233;-66
2021/06/23 06:34:40;;;;;;;;;;;;;;;23.87;47.14;100891.66;5029274;28;1110;-66
2021/06/23 06:37:26;;;;;;;;;;;;;;;23.88;46.95;100888.91;5028836;28;1965;-63
2021/06/23 06:40:11;;;;;;;;;;;;;;;23.77;46.65;100896.81;5028812;28;648;-64
2021/06/23 06:42:56;;;;;;;;;;;;;;;23.86;46.68;100882.81;5028732;28;1276;-64
2021/06/23 06:45:42;;;;;;;;;;;;;;;23.86;46.64;100882.00;5041462;28;644;-64
2021/06/23 06:48:27;;;;;;;;;;;;;;;23.87;46.50;100878.34;5028228;28;1280;-69
2021/06/23 06:51:12;;;;;;;;;;;;;;;23.92;46.63;100889.50;5028419;28;1282;-68
2021/06/23 06:53:58;;;;;;;;;;;;;;;23.98;46.55;100885.53;5028891;28;1120;-64
2021/06/23 06:56:43;;;;;;;;;;;;;;;24.02;46.83;100878.97;5032620;28;2322;-72
2021/06/23 06:59:30;;;;;;;;;;;;;;;24.07;47.25;100883.00;5055548;28;1734;-69
2021/06/23 07:02:18;;;;;;;;;;;;;;;24.07;47.02;100880.34;5053904;28;1362;-72
2021/06/23 07:05:04;;;;;;;;;;;;;;;24.09;46.85;100885.53;5056939;28;1213;-65
2021/06/23 07:07:49;;;;;;;;;;;;;;;24.12;47.06;100896.84;5043293;28;1426;-73
2021/06/23 07:10:35;;;;;;;;;;;;;;;24.09;46.80;100906.81;5044052;28;1068;-74
2021/06/23 07:13:24;;;;;;;;;;;;;;;24.14;47.07;100905.53;5046383;28;1315;-75
2021/06/23 07:16:09;;;;;;;;;;;;;;;24.12;46.64;100907.47;5045198;28;1910;-65
2021/06/23 07:18:55;;;;;;;;;;;;;;;24.14;46.75;100908.19;5043634;28;1091;-67
2021/06/23 07:21:41;;;;;;;;;;;;;;;24.16;46.13;100913.41;5042970;28;1328;-67
2021/06/23 07:24:27;;;;;;;;;;;;;;;24.12;46.43;100920.78;5045617;28;1195;-68
2021/06/23 07:27:15;;;;;;;;;;;;;;;24.09;46.32;100922.78;5043270;28;1303;-67
2021/06/23 07:30:01;;;;;;;;;;;;;;;24.08;45.93;100926.41;5044215;28;1107;-69
2021/06/23 07:32:53;;;;;;;;;;;;;;;24.12;45.91;100939.41;5045370;28;1391;-68
2021/06/23 07:38:42;;;;;;;;;;;;;;;24.14;45.68;100953.44;5045264;28;1071;-67
2021/06/23 07:41:27;;;;;;;;;;;;;;;24.18;45.77;100959.38;5045284;28;1419;-64
2021/06/23 07:44:16;;;;;;;;;;;;;;;24.12;45.32;100962.50;5044061;28;1391;-71
2021/06/23 07:47:07;;;;;;;;;;;;;;;24.29;46.63;100970.03;5042891;28;1343;-75
2021/06/23 07:49:52;;;;;;;;;;;;;;;24.38;46.41;100978.19;5041469;28;1087;-70
2021/06/23 07:55:47;;;;;;;;;;;;;;;24.45;46.30;100986.56;5044722;28;1095;-63
2021/06/23 08:10:37;;;;;;;;;;;;;;;24.55;45.77;100994.69;5049075;28;1055;-74
2021/06/23 08:13:23;;;;;;;;;;;;;;;24.56;46.07;100996.38;5046967;28;1320;-73
2021/06/23 08:16:08;;;;;;;;;;;;;;;24.57;46.05;100987.41;5048749;28;1975;-69
2021/06/23 08:18:54;;;;;;;;;;;;;;;24.64;46.57;100983.31;5046525;28;1036;-69
2021/06/23 08:21:39;;;;;;;;;;;;;;;24.61;46.47;100988.88;5046061;28;1307;-71
2021/06/23 08:24:24;;;;;;;;;;;;;;;24.61;46.64;100995.06;5048000;28;1050;-69
2021/06/23 08:27:10;;;;;;;;;;;;;;;24.65;47.03;101001.00;5046321;28;1377;-71
2021/06/23 08:29:58;;;;;;;;;;;;;;;24.65;47.24;101009.00;5044974;28;1072;-72
2021/06/23 08:32:44;;;;;;;;;;;;;;;24.54;47.71;101009.81;5047218;28;1268;-66
2021/06/23 08:35:30;;;;;;;;;;;;;;;24.39;48.19;101003.84;5040991;28;1255;-69
2021/06/23 08:38:15;;;;;;;;;;;;;;;24.44;47.86;101015.00;5046333;28;1925;-69
2021/06/23 08:41:01;;;;;;;;;;;;;;;24.28;48.64;101018.94;5044328;28;1237;-71
2021/06/23 08:43:46;;;;;;;;;;;;;;;24.19;49.33;101027.63;5040420;28;1330;-68
2021/06/23 08:46:32;;;;;;;;;;;;;;;24.09;49.57;101030.09;5045840;28;1322;-70
2021/06/23 08:49:17;;;;;;;;;;;;;;;24.05;49.38;101030.44;5047397;28;1676;-68
2021/06/23 08:52:03;;;;;;;;;;;;;;;23.90;49.48;101024.44;5046434;28;1549;-67
2021/06/23 08:54:54;;;;;;;;;;;;;;;23.88;49.00;101035.22;5048530;28;1506;-65
2021/06/23 08:57:42;;;;;;;;;;;;;;;23.79;49.29;101027.06;5045744;28;1910;-73
2021/06/23 09:00:27;;;;;;;;;;;;;;;23.76;49.65;101030.78;5047850;28;1044;-71
2021/06/23 09:03:12;;;;;;;;;;;;;;;23.68;49.23;101030.50;5045372;28;1674;-69
2021/06/23 09:05:59;;;;;;;;;;;;;;;23.54;49.43;101027.13;5048597;28;1498;-69
2021/06/23 09:08:44;;;;;;;;;;;;;;;23.47;49.54;101021.41;5048048;28;1111;-67
2021/06/23 09:11:39;;;;;;;;;;;;;;;23.47;49.38;101017.94;5049569;28;1538;-68
2021/06/23 09:14:26;;;;;;;;;;;;;;;23.37;50.00;101020.38;5049142;28;1067;-73
2021/06/23 09:17:14;;;;;;;;;;;;;;;23.72;49.28;101029.31;5048177;28;1967;-71
2021/06/23 09:20:09;;;;;;;;;;;;;;;24.07;48.65;101031.19;5047353;28;1482;-71
2021/06/23 09:22:54;;;;;;;;;;;;;;;24.17;48.72;101022.41;5045271;28;1477;-70
2021/06/23 09:25:44;;;;;;;;;;;;;;;24.23;48.67;101027.25;5046547;28;1130;-68
2021/06/23 09:28:29;;;;;;;;;;;;;;;24.28;48.52;101019.81;5048172;28;1419;-69
2021/06/23 09:31:15;;;;;;;;;;;;;;;24.31;48.76;101027.56;5046056;28;1429;-68
2021/06/23 09:34:19;;;;;;;;;;;;;;;24.29;48.45;101018.81;5046004;28;1090;-71
2021/06/23 09:37:26;;;;;;;;;;;;;;;24.30;48.61;101006.34;5042544;28;1914;-69
2021/06/23 09:40:22;;;;;;;;;;;;;;;24.06;48.36;101008.19;5045214;28;1303;-70
2021/06/23 09:43:10;;;;;;;;;;;;;;;24.17;48.25;101006.44;5046795;28;1268;-70
2021/06/23 09:45:57;;;;;;;;;;;;;;;24.28;48.13;101003.84;5045283;28;1108;-73
2021/06/23 09:48:43;;;;;;;;;;;;;;;24.36;48.56;101008.56;5045428;28;1112;-70
2021/06/23 09:51:36;;;;;;;;;;;;;;;24.39;48.59;101011.84;5045074;28;1403;-72
2021/06/23 09:54:31;;;;;;;;;;;;;;;24.25;48.94;101014.72;5043332;28;1089;-68
2021/06/23 09:57:18;;;;;;;;;;;;;;;23.81;50.01;101020.66;5044564;28;1917;-68
2021/06/23 10:00:08;;;;;;;;;;;;;;;23.68;50.73;101019.03;5045190;28;1071;-75
2021/06/23 10:03:01;;;;;;;;;;;;;;;23.52;51.20;101015.78;5046219;28;1386;-69
2021/06/23 10:05:47;;;;;;;;;;;;;;;23.44;51.42;101021.63;5046773;28;1068;-70
2021/06/23 10:08:32;;;;;;;;;;;;;;;23.52;51.87;101018.44;5046551;28;1331;-71
2021/06/23 10:11:30;;;;;;;;;;;;;;;23.44;52.77;101018.16;5044460;28;1490;-68
2021/06/23 10:14:16;;;;;;;;;;;;;;;23.35;51.61;101019.59;5045110;28;1257;-66
2021/06/23 10:17:03;;;;;;;;;;;;;;;23.43;51.39;101016.44;5042389;28;1965;-68
2021/06/23 10:19:49;;;;;;;;;;;;;;;23.51;50.94;101012.25;5046315;28;1062;-71
2021/06/23 10:22:35;;;;;;;;;;;;;;;23.79;50.52;101013.75;5040772;28;1430;-71
2021/06/23 10:25:23;;;;;;;;;;;;;;;24.00;50.25;101024.59;5043595;28;1017;-68
2021/06/23 10:28:12;;;;;;;;;;;;;;;24.14;50.51;101025.31;5045517;28;1395;-69
2021/06/23 10:30:58;;;;;;;;;;;;;;;24.21;50.29;101025.69;5046690;28;1300;-67
2021/06/23 10:33:44;;;;;;;;;;;;;;;24.32;50.43;101023.91;5044144;28;1285;-68
2021/06/23 10:36:30;;;;;;;;;;;;;;;24.27;49.69;101009.25;5041623;28;1328;-67
2021/06/23 10:39:16;;;;;;;;;;;;;;;24.29;50.01;101021.47;5046512;28;1161;-69
2021/06/23 10:42:03;;;;;;;;;;;;;;;24.28;50.10;101019.81;5044383;28;1331;-70
2021/06/23 10:44:53;;;;;;;;;;;;;;;24.31;49.96;101024.91;5044394;28;1137;-69
2021/06/23 10:47:39;;;;;;;;;;;;;;;24.33;50.61;101020.28;5045690;28;1331;-66
2021/06/23 10:50:33;;;;;;;;;;;;;;;24.42;49.95;101008.94;5043741;28;1145;-67
2021/06/23 10:53:32;;;;;;;;;;;;;;;24.31;49.30;101006.25;5045852;28;1411;-68
2021/06/23 10:56:36;;;;;;;;;;;;;;;24.16;49.80;101020.72;5044151;28;1334;-65
2021/06/23 10:59:35;;;;;;;;;;;;;;;24.09;49.58;101019.44;5043980;28;1095;-67
2021/06/23 11:02:29;;;;;;;;;;;;;;;24.18;49.50;101024.13;5044175;28;1319;-67
2021/06/23 11:05:17;;;;;;;;;;;;;;;24.26;49.58;101027.03;5042417;28;1226;-66
2021/06/23 11:08:19;;;;;;;;;;;;;;;24.34;49.77;101023.81;5045552;28;1365;-68
2021/06/23 11:11:05;;;;;;;;;;;;;;;24.43;49.59;101017.78;5040597;28;1589;-66
2021/06/23 11:14:11;;;;;;;;;;;;;;;24.40;49.62;101013.53;5057018;28;1062;-67
2021/06/23 11:16:56;;;;;;;;;;;;;;;24.40;50.09;101013.53;5041492;28;1902;-67
2021/06/23 11:19:44;;;;;;;;;;;;;;;24.44;50.20;101024.78;5044605;28;1071;-68
2021/06/23 11:22:36;;;;;;;;;;;;;;;24.40;50.19;101026.84;5043281;28;1371;-67
2021/06/23 11:25:33;;;;;;;;;;;;;;;24.40;50.16;101040.16;5043414;28;1115;-69
2021/06/23 11:28:25;;;;;;;;;;;;;;;24.43;50.41;101039.09;5043610;28;1419;-70
2021/06/23 11:31:11;;;;;;;;;;;;;;;24.47;50.04;101036.06;5042170;28;1406;-70
2021/06/23 11:33:57;;;;;;;;;;;;;;;24.50;50.18;101024.31;5044175;28;1058;-70
2021/06/23 11:36:46;;;;;;;;;;;;;;;24.53;50.42;101025.91;5043178;28;1399;-69
2021/06/23 11:39:31;;;;;;;;;;;;;;;24.58;50.69;101016.59;5041819;28;1252;-67
2021/06/23 11:42:18;;;;;;;;;;;;;;;24.60;50.68;101017.31;5055684;28;1372;-68
2021/06/23 11:45:04;;;;;;;;;;;;;;;24.60;50.29;101019.13;5042027;28;1222;-69
2021/06/23 11:47:49;;;;;;;;;;;;;;;24.60;50.50;101025.31;5043354;28;1425;-69
2021/06/23 11:50:34;;;;;;;;;;;;;;;24.61;50.42;101031.50;5043829;28;1142;-67
2021/06/23 11:53:20;;;;;;;;;;;;;;;24.65;50.25;101027.63;5044660;28;1329;-70
2021/06/23 11:56:06;;;;;;;;;;;;;;;24.63;50.44;101030.41;5044635;28;1087;-69
2021/06/23 11:58:52;;;;;;;;;;;;;;;24.62;50.56;101027.88;5043388;28;1981;-70
2021/06/23 12:01:37;;;;;;;;;;;;;;;24.74;51.17;101042.91;5039923;28;1344;-66
2021/06/23 12:04:23;;;;;;;;;;;;;;;24.86;50.99;101026.84;5044671;28;1058;-68
2021/06/23 12:07:08;;;;;;;;;;;;;;;24.86;50.86;101034.00;5042231;28;1404;-69
2021/06/23 12:09:53;;;;;;;;;;;;;;;24.86;50.75;101018.00;5042311;28;1080;-67
2021/06/23 12:12:39;;;;;;;;;;;;;;;24.88;51.46;101019.56;5043979;28;1292;-67
2021/06/23 12:15:28;;;;;;;;;;;;;;;24.97;51.77;101018.00;5042473;28;1055;-66
2021/06/23 12:18:14;;;;;;;;;;;;;;;25.02;51.44;101013.13;5042888;28;1938;-68
2021/06/23 12:21:00;;;;;;;;;;;;;;;25.01;51.72;101014.13;5045045;28;948;-73
2021/06/23 12:23:45;;;;;;;;;;;;;;;25.02;50.82;101010.47;5042213;28;1316;-70
2021/06/23 12:26:31;;;;;;;;;;;;;;;24.97;50.44;101012.66;5042947;28;1405;-69
2021/06/23 12:29:16;;;;;;;;;;;;;;;24.90;51.14;101008.78;5042754;28;1250;-69
2021/06/23 12:32:02;;;;;;;;;;;;;;;24.93;50.86;101012.06;5043159;28;1327;-68
2021/06/23 12:34:48;;;;;;;;;;;;;;;24.94;51.02;101012.91;5042424;28;1079;-69
2021/06/23 12:37:34;;;;;;;;;;;;;;;24.98;52.15;101009.91;5043520;28;1985;-68
2021/06/23 12:40:20;;;;;;;;;;;;;;;25.04;51.42;101003.22;5044365;28;1099;-68
2021/06/23 12:43:17;;;;;;;;;;;;;;;25.04;51.26;101005.03;5041969;28;1366;-72
2021/06/23 12:46:02;;;;;;;;;;;;;;;25.04;50.64;101003.22;5047366;28;1209;-73
2021/06/23 12:48:48;;;;;;;;;;;;;;;25.06;50.67;101003.09;5046605;28;1103;-70
2021/06/23 12:51:33;;;;;;;;;;;;;;;25.05;50.65;100991.56;5047232;28;1320;-69
2021/06/23 12:54:19;;;;;;;;;;;;;;;25.06;50.74;100995.09;5048408;28;1139;-71
2021/06/23 12:57:04;;;;;;;;;;;;;;;25.05;51.02;100991.56;5048526;28;1331;-72
2021/06/23 12:59:52;;;;;;;;;;;;;;;25.06;51.20;100990.63;5044960;28;1120;-70
2021/06/23 13:02:37;;;;;;;;;;;;;;;25.09;50.79;100986.84;5045211;28;1394;-68
2021/06/23 13:05:22;;;;;;;;;;;;;;;25.11;51.37;100988.41;5047923;28;1241;-66
2021/06/23 13:08:09;;;;;;;;;;;;;;;25.12;51.23;100982.13;5046787;28;1403;-71
2021/06/23 13:10:54;;;;;;;;;;;;;;;25.10;51.30;100976.09;5044706;28;1208;-69
2021/06/23 13:13:40;;;;;;;;;;;;;;;25.10;51.04;100981.41;5047300;28;1137;-70
2021/06/23 13:16:27;;;;;;;;;;;;;;;25.10;50.94;100976.09;5044245;28;1364;-72
2021/06/23 13:19:13;;;;;;;;;;;;;;;25.10;51.33;100975.25;5046948;28;2037;-68
2021/06/23 13:21:58;;;;;;;;;;;;;;;25.12;51.17;100978.63;5047006;28;1410;-67
2021/06/23 13:24:44;;;;;;;;;;;;;;;25.12;51.21;100970.63;5044622;28;1029;-68
2021/06/23 13:27:29;;;;;;;;;;;;;;;25.13;51.12;100970.50;5045437;28;1418;-68
2021/06/23 13:30:15;;;;;;;;;;;;;;;25.13;51.66;100975.00;5045470;28;1114;-66
2021/06/23 13:33:00;;;;;;;;;;;;;;;25.12;51.32;100971.47;5046857;28;1434;-67
2021/06/23 13:35:46;;;;;;;;;;;;;;;25.13;51.10;100965.19;5045051;28;1011;-68
2021/06/23 13:38:31;;;;;;;;;;;;;;;25.12;51.35;100960.81;5045654;28;2028;-67
2021/06/23 13:41:16;;;;;;;;;;;;;;;25.13;51.13;100959.00;5045883;28;1359;-68
2021/06/23 13:44:02;;;;;;;;;;;;;;;25.15;51.55;100959.72;5047924;28;1078;-69
2021/06/23 13:46:47;;;;;;;;;;;;;;;25.18;51.09;100946.13;5046508;28;1343;-70
2021/06/23 13:49:32;;;;;;;;;;;;;;;25.19;51.21;100943.34;5044088;28;1120;-68
2021/06/23 13:52:18;;;;;;;;;;;;;;;25.21;51.48;100940.56;5043739;28;1371;-68
2021/06/23 13:55:04;;;;;;;;;;;;;;;25.22;51.64;100945.78;5046866;28;1024;-69
2021/06/23 13:57:51;;;;;;;;;;;;;;;25.22;51.81;100940.44;5043616;28;1914;-67
2021/06/23 14:00:37;;;;;;;;;;;;;;;25.21;51.69;100949.41;5044137;28;1080;-72
2021/06/23 14:03:23;;;;;;;;;;;;;;;25.24;51.41;100945.63;5046327;28;1502;-71
2021/06/23 14:06:08;;;;;;;;;;;;;;;25.22;51.71;100948.44;5044494;28;1027;-71
2021/06/23 14:08:54;;;;;;;;;;;;;;;25.23;51.50;100944.78;5047306;28;1065;-68
2021/06/23 14:11:39;;;;;;;;;;;;;;;25.25;51.76;100947.34;5045445;28;1430;-70
2021/06/23 14:14:24;;;;;;;;;;;;;;;25.25;51.72;100942.00;5046095;28;1111;-68
2021/06/23 14:17:10;;;;;;;;;;;;;;;25.25;51.76;100948.19;5043556;28;1449;-70
2021/06/23 14:19:56;;;;;;;;;;;;;;;25.28;52.21;100947.94;5042338;28;2568;-73
2021/06/23 14:22:42;;;;;;;;;;;;;;;25.26;51.80;100944.53;5044971;28;1515;-70
2021/06/23 14:25:28;;;;;;;;;;;;;;;25.27;51.45;100951.56;5043989;28;1032;-73
2021/06/23 14:28:16;;;;;;;;;;;;;;;25.29;51.62;100943.47;5044908;28;1304;-71
2021/06/23 14:31:01;;;;;;;;;;;;;;;25.35;52.03;100940.31;5045420;28;1067;-73
2021/06/23 14:33:48;;;;;;;;;;;;;;;25.47;52.63;100940.13;5046078;28;1073;-70
2021/06/23 14:36:35;;;;;;;;;;;;;;;25.38;50.13;100932.88;5044436;28;1386;-71
2021/06/23 14:39:20;;;;;;;;;;;;;;;25.34;51.63;100934.13;5046673;28;1898;-71
2021/06/23 14:42:09;;;;;;;;;;;;;;;25.33;51.42;100929.75;5046732;28;1299;-71
2021/06/23 14:44:54;;;;;;;;;;;;;;;25.33;51.90;100935.06;5046697;28;1047;-72
2021/06/23 14:47:39;;;;;;;;;;;;;;;25.32;51.59;100928.03;5045425;28;1333;-71